createdAt,value
2018-08-25T00:01:18.623Z,19.56
2018-08-25T00:03:47.216Z,19.55
2018-08-25T00:06:15.867Z,19.54
2018-08-25T00:08:44.474Z,19.45
2018-08-25T00:11:13.061Z,19.39
2018-08-25T00:13:41.580Z,19.38
2018-08-25T00:16:10.241Z,19.40
2018-08-25T00:18:38.783Z,19.40
2018-08-25T00:21:07.338Z,19.41
2018-08-25T00:23:35.917Z,19.42
2018-08-25T00:26:04.552Z,19.40
2018-08-25T00:28:33.084Z,19.36
2018-08-25T00:31:06.710Z,19.34
2018-08-25T00:33:35.288Z,19.24
2018-08-25T00:36:03.865Z,19.26
2018-08-25T00:38:32.430Z,19.26
2018-08-25T00:41:00.959Z,19.27
2018-08-25T00:43:29.599Z,19.32
2018-08-25T00:45:58.196Z,19.34
2018-08-25T00:48:26.769Z,19.29
2018-08-25T00:50:55.340Z,19.26
2018-08-25T00:53:23.916Z,19.25
2018-08-25T00:55:52.502Z,19.26
2018-08-25T00:58:21.079Z,19.28
2018-08-25T01:00:49.703Z,19.27
2018-08-25T01:03:18.388Z,19.25
2018-08-25T01:05:47.071Z,19.21
2018-08-25T01:08:15.709Z,19.19
2018-08-25T01:10:44.298Z,19.01
2018-08-25T01:13:12.917Z,19.00
2018-08-25T01:15:41.493Z,18.93
2018-08-25T01:18:10.942Z,18.94
2018-08-25T01:20:39.490Z,18.96
2018-08-25T01:23:08.058Z,19.01
2018-08-25T01:25:36.607Z,18.98
2018-08-25T01:28:05.257Z,19.01
2018-08-25T01:30:33.792Z,19.01
2018-08-25T01:33:02.340Z,19.01
2018-08-25T01:35:30.904Z,18.96
2018-08-25T01:37:59.450Z,18.94
2018-08-25T01:40:28.013Z,18.98
2018-08-25T01:42:56.572Z,19.02
2018-08-25T01:45:25.153Z,19.03
2018-08-25T01:47:53.709Z,18.80
2018-08-25T01:50:22.409Z,18.80
2018-08-25T01:52:50.976Z,18.81
2018-08-25T01:55:19.624Z,18.83
2018-08-25T01:57:48.199Z,18.85
2018-08-25T02:00:16.767Z,18.86
2018-08-25T02:02:45.376Z,18.80
2018-08-25T02:05:13.961Z,18.80
2018-08-25T02:07:42.614Z,18.80
2018-08-25T02:10:11.177Z,18.61
2018-08-25T02:12:39.812Z,18.45
2018-08-25T02:15:08.407Z,18.53
2018-08-25T02:17:36.980Z,18.57
2018-08-25T02:20:06.077Z,18.64
2018-08-25T02:22:34.659Z,18.62
2018-08-25T02:25:03.308Z,18.56
2018-08-25T02:27:31.876Z,18.56
2018-08-25T02:30:00.624Z,18.71
2018-08-25T02:32:29.177Z,18.75
2018-08-25T02:34:57.764Z,18.64
2018-08-25T02:37:26.301Z,18.58
2018-08-25T02:39:54.857Z,18.60
2018-08-25T02:42:23.431Z,18.64
2018-08-25T02:44:52.022Z,18.62
2018-08-25T02:47:20.629Z,18.62
2018-08-25T02:49:49.189Z,18.61
2018-08-25T02:52:17.781Z,18.57
2018-08-25T02:54:46.370Z,18.60
2018-08-25T02:57:14.922Z,18.62
2018-08-25T02:59:43.471Z,18.63
2018-08-25T03:02:12.049Z,18.55
2018-08-25T03:04:40.600Z,18.56
2018-08-25T03:07:09.176Z,18.60
2018-08-25T03:09:37.743Z,18.62
2018-08-25T03:12:06.304Z,18.60
2018-08-25T03:14:34.900Z,18.62
2018-08-25T03:17:03.558Z,18.54
2018-08-25T03:19:32.223Z,18.50
2018-08-25T03:22:00.868Z,18.45
2018-08-25T03:24:29.492Z,18.42
2018-08-25T03:26:58.135Z,18.37
2018-08-25T03:29:26.792Z,18.38
2018-08-25T03:31:55.376Z,18.39
2018-08-25T03:34:23.967Z,18.30
2018-08-25T03:36:52.695Z,18.21
2018-08-25T03:39:21.286Z,18.09
2018-08-25T03:41:49.833Z,17.98
2018-08-25T03:44:19.202Z,18.02
2018-08-25T03:46:47.776Z,18.09
2018-08-25T03:49:16.324Z,18.12
2018-08-25T03:51:44.889Z,18.13
2018-08-25T03:54:13.413Z,18.01
2018-08-25T03:56:41.987Z,17.85
2018-08-25T03:59:10.532Z,17.87
2018-08-25T04:01:39.303Z,17.86
2018-08-25T04:04:07.827Z,17.88
2018-08-25T04:06:36.377Z,17.95
2018-08-25T04:09:07.768Z,17.90
2018-08-25T04:11:36.320Z,17.83
2018-08-25T04:14:04.883Z,17.74
2018-08-25T04:16:33.449Z,17.63
2018-08-25T04:19:02.116Z,17.72
2018-08-25T04:21:30.678Z,17.76
2018-08-25T04:23:59.375Z,17.74
2018-08-25T04:26:27.912Z,17.63
2018-08-25T04:28:56.652Z,17.60
2018-08-25T04:31:25.255Z,17.57
2018-08-25T04:33:53.826Z,17.50
2018-08-25T04:36:22.365Z,17.59
2018-08-25T04:38:50.921Z,17.54
2018-08-25T04:41:19.531Z,17.55
2018-08-25T04:43:48.089Z,17.56
2018-08-25T04:46:16.633Z,17.53
2018-08-25T04:48:45.281Z,17.54
2018-08-25T04:51:13.928Z,17.57
2018-08-25T04:53:42.621Z,17.55
2018-08-25T04:56:11.297Z,17.53
2018-08-25T04:58:39.920Z,17.63
2018-08-25T05:01:08.481Z,17.52
2018-08-25T05:03:37.019Z,17.47
2018-08-25T05:06:05.642Z,17.48
2018-08-25T05:08:34.229Z,17.57
2018-08-25T05:11:02.792Z,17.60
2018-08-25T05:13:31.348Z,17.62
2018-08-25T05:15:59.893Z,17.69
2018-08-25T05:18:28.532Z,17.73
2018-08-25T05:20:57.922Z,17.67
2018-08-25T05:23:26.478Z,17.71
2018-08-25T05:25:55.060Z,17.63
2018-08-25T05:28:23.620Z,17.55
2018-08-25T05:30:52.156Z,17.56
2018-08-25T05:33:20.811Z,17.58
2018-08-25T05:35:49.350Z,17.71
2018-08-25T05:38:18.011Z,17.75
2018-08-25T05:40:46.564Z,17.75
2018-08-25T05:43:15.095Z,17.73
2018-08-25T05:45:43.677Z,17.77
2018-08-25T05:48:12.246Z,17.85
2018-08-25T05:50:40.804Z,17.95
2018-08-25T05:53:09.356Z,18.06
2018-08-25T05:55:37.936Z,18.03
2018-08-25T05:58:06.503Z,17.95
2018-08-25T06:00:35.083Z,17.84
2018-08-25T06:03:03.639Z,17.97
2018-08-25T06:05:32.196Z,18.06
2018-08-25T06:08:00.755Z,18.01
2018-08-25T06:10:29.294Z,18.03
2018-08-25T06:12:57.832Z,17.96
2018-08-25T06:15:26.396Z,17.68
2018-08-25T06:17:54.973Z,17.58
2018-08-25T06:20:23.534Z,17.59
2018-08-25T06:22:52.077Z,17.55
2018-08-25T06:25:20.645Z,17.66
2018-08-25T06:27:49.221Z,17.79
2018-08-25T06:30:17.840Z,17.88
2018-08-25T06:32:46.340Z,17.96
2018-08-25T06:35:14.954Z,18.06
2018-08-25T06:37:43.504Z,18.11
2018-08-25T06:40:12.052Z,18.12
2018-08-25T06:42:40.738Z,18.22
2018-08-25T06:45:09.204Z,18.00
2018-08-25T06:47:37.764Z,18.15
2018-08-25T06:50:06.465Z,18.16
2018-08-25T06:52:35.065Z,18.22
2018-08-25T06:55:03.657Z,17.52
2018-08-25T06:57:32.573Z,17.79
2018-08-25T07:00:01.155Z,17.85
2018-08-25T07:02:29.720Z,17.86
2018-08-25T07:04:58.303Z,17.94
2018-08-25T07:07:26.860Z,17.53
2018-08-25T07:09:55.419Z,17.61
2018-08-25T07:12:23.992Z,17.57
2018-08-25T07:14:52.600Z,17.47
2018-08-25T07:20:48.667Z,17.65
2018-08-25T07:23:17.212Z,17.40
2018-08-25T07:25:45.767Z,17.42
2018-08-25T07:28:14.354Z,17.29
2018-08-25T07:30:42.933Z,17.39
2018-08-25T07:33:11.484Z,17.39
2018-08-25T07:35:40.048Z,17.33
2018-08-25T07:38:08.645Z,17.36
2018-08-25T07:40:37.172Z,17.44
2018-08-25T07:43:06.101Z,17.43
2018-08-25T07:45:35.517Z,17.50
2018-08-25T07:48:04.144Z,17.48
2018-08-25T07:50:32.708Z,17.47
2018-08-25T07:53:01.287Z,17.13
2018-08-25T07:55:29.898Z,17.10
2018-08-25T07:57:58.629Z,17.20
2018-08-25T08:00:27.222Z,17.28
2018-08-25T08:02:55.846Z,17.14
2018-08-25T08:05:24.550Z,16.99
2018-08-25T08:07:53.108Z,17.04
2018-08-25T08:10:21.737Z,16.93
2018-08-25T08:12:50.428Z,16.75
2018-08-25T08:15:18.952Z,16.77
2018-08-25T08:17:47.495Z,16.65
2018-08-25T08:20:16.153Z,16.81
2018-08-25T08:22:44.715Z,16.69
2018-08-25T08:25:13.681Z,16.75
2018-08-25T08:27:42.217Z,16.75
2018-08-25T08:30:10.792Z,16.95
2018-08-25T08:32:39.367Z,17.08
2018-08-25T08:35:08.084Z,17.20
2018-08-25T08:37:36.674Z,16.99
2018-08-25T08:40:05.311Z,16.76
2018-08-25T08:42:34.016Z,16.66
2018-08-25T08:45:02.584Z,16.73
2018-08-25T08:47:31.211Z,16.90
2018-08-25T08:49:59.865Z,17.02
2018-08-25T08:52:28.491Z,16.89
2018-08-25T08:54:57.066Z,16.68
2018-08-25T08:57:25.644Z,16.93
2018-08-25T08:59:54.184Z,17.09
2018-08-25T09:02:22.775Z,16.91
2018-08-25T09:04:51.363Z,17.02
2018-08-25T09:07:20.247Z,17.07
2018-08-25T09:09:48.782Z,17.15
2018-08-25T09:12:17.484Z,17.15
2018-08-25T09:14:46.026Z,17.31
2018-08-25T09:17:14.643Z,17.37
2018-08-25T09:19:43.231Z,17.30
2018-08-25T09:22:12.343Z,17.37
2018-08-25T09:24:41.000Z,17.33
2018-08-25T09:27:09.576Z,17.41
2018-08-25T09:29:38.939Z,17.61
2018-08-25T09:32:07.601Z,17.53
2018-08-25T09:34:36.248Z,17.62
2018-08-25T09:37:05.495Z,17.65
2018-08-25T09:39:34.184Z,17.67
2018-08-25T09:42:02.724Z,17.65
2018-08-25T09:44:31.289Z,17.85
2018-08-25T09:46:59.875Z,17.87
2018-08-25T09:49:28.412Z,18.08
2018-08-25T09:51:56.949Z,18.19
2018-08-25T09:54:25.552Z,18.37
2018-08-25T09:56:54.137Z,18.37
2018-08-25T09:59:22.735Z,18.53
2018-08-25T10:01:57.052Z,18.46
2018-08-25T10:04:25.794Z,18.40
2018-08-25T10:06:54.424Z,18.50
2018-08-25T10:09:23.180Z,18.45
2018-08-25T10:11:51.725Z,18.52
2018-08-25T10:14:20.287Z,18.47
2018-08-25T10:16:49.066Z,18.12
2018-08-25T10:19:17.676Z,18.07
2018-08-25T10:21:46.249Z,17.87
2018-08-25T10:24:14.770Z,18.05
2018-08-25T10:26:43.356Z,17.92
2018-08-25T10:29:11.973Z,17.84
2018-08-25T10:31:40.555Z,17.86
2018-08-25T10:34:09.327Z,17.87
2018-08-25T10:36:38.208Z,18.02
2018-08-25T10:39:09.999Z,18.26
2018-08-25T10:41:38.767Z,18.32
2018-08-25T10:44:07.828Z,18.45
2018-08-25T10:46:37.051Z,18.43
2018-08-25T10:49:05.677Z,18.29
2018-08-25T10:51:34.312Z,18.16
2018-08-25T10:54:02.952Z,18.07
2018-08-25T10:56:31.464Z,18.18
2018-08-25T10:59:00.030Z,18.24
2018-08-25T11:01:28.580Z,18.16
2018-08-25T11:03:57.240Z,18.23
2018-08-25T11:06:25.840Z,18.19
2018-08-25T11:08:54.386Z,18.31
2018-08-25T11:11:22.918Z,18.19
2018-08-25T11:13:51.463Z,17.92
2018-08-25T11:16:20.057Z,18.09
2018-08-25T11:18:48.569Z,18.23
2018-08-25T11:21:17.106Z,18.21
2018-08-25T11:23:45.715Z,18.25
2018-08-25T11:26:14.272Z,18.30
2018-08-25T11:28:42.820Z,18.15
2018-08-25T11:31:11.544Z,18.27
2018-08-25T11:33:40.113Z,18.44
2018-08-25T11:36:08.805Z,18.41
2018-08-25T11:38:37.433Z,18.42
2018-08-25T11:41:06.416Z,18.53
2018-08-25T11:43:35.012Z,18.64
2018-08-25T11:46:03.599Z,18.89
2018-08-25T11:48:32.165Z,19.01
2018-08-25T11:51:01.721Z,19.03
2018-08-25T11:53:30.262Z,19.18
2018-08-25T11:55:58.832Z,19.09
2018-08-25T11:58:27.364Z,19.13
2018-08-25T12:00:55.963Z,19.02
2018-08-25T12:03:24.560Z,19.07
2018-08-25T12:05:53.123Z,19.05
2018-08-25T12:08:21.709Z,18.97
2018-08-25T12:10:50.278Z,19.00
2018-08-25T12:13:18.810Z,18.89
2018-08-25T12:15:47.364Z,18.65
2018-08-25T12:18:15.934Z,18.61
2018-08-25T12:20:44.484Z,18.73
2018-08-25T12:23:13.060Z,18.77
2018-08-25T12:25:41.792Z,18.78
2018-08-25T12:28:10.447Z,18.75
2018-08-25T12:30:39.901Z,18.80
2018-08-25T12:33:08.574Z,18.62
2018-08-25T12:35:37.237Z,18.57
2018-08-25T12:38:05.953Z,18.33
2018-08-25T12:40:35.371Z,18.35
2018-08-25T12:43:04.943Z,18.50
2018-08-25T12:45:33.492Z,18.54
2018-08-25T12:48:02.464Z,18.68
2018-08-25T12:50:31.979Z,18.70
2018-08-25T12:53:00.636Z,18.76
2018-08-25T12:55:29.408Z,18.88
2018-08-25T12:57:58.053Z,19.03
2018-08-25T13:00:26.703Z,19.14
2018-08-25T13:02:55.349Z,19.32
2018-08-25T13:05:24.532Z,19.32
2018-08-25T13:07:53.164Z,19.40
2018-08-25T13:10:21.704Z,19.30
2018-08-25T13:12:50.267Z,19.09
2018-08-25T13:15:18.979Z,18.87
2018-08-25T13:17:48.708Z,18.94
2018-08-25T13:20:17.400Z,19.12
2018-08-25T13:22:47.118Z,18.95
2018-08-25T13:25:15.692Z,19.00
2018-08-25T13:27:44.351Z,18.79
2018-08-25T13:30:13.115Z,18.90
2018-08-25T13:32:41.750Z,19.06
2018-08-25T13:35:10.422Z,18.93
2018-08-25T13:37:38.980Z,18.97
2018-08-25T13:40:07.647Z,19.04
2018-08-25T13:42:36.370Z,19.15
2018-08-25T13:45:05.060Z,19.00
2018-08-25T13:47:34.387Z,18.91
2018-08-25T13:50:03.353Z,18.84
2018-08-25T13:52:32.190Z,18.86
2018-08-25T13:55:01.385Z,18.77
2018-08-25T13:57:30.148Z,18.65
2018-08-25T13:59:58.864Z,18.72
2018-08-25T14:02:27.490Z,18.85
2018-08-25T14:04:56.385Z,18.84
2018-08-25T14:07:26.831Z,18.84
2018-08-25T14:09:55.642Z,18.81
2018-08-25T14:12:24.271Z,18.59
2018-08-25T14:14:53.747Z,18.64
2018-08-25T14:17:22.450Z,18.64
2018-08-25T14:19:51.699Z,18.66
2018-08-25T14:22:20.972Z,18.60
2018-08-25T14:24:49.756Z,18.62
2018-08-25T14:27:18.456Z,18.52
2018-08-25T14:29:47.261Z,18.41
2018-08-25T14:32:16.172Z,18.48
2018-08-25T14:34:45.405Z,18.44
2018-08-25T14:37:15.052Z,18.46
2018-08-25T14:39:44.841Z,18.53
2018-08-25T14:42:13.651Z,18.42
2018-08-25T14:44:42.459Z,18.46
2018-08-25T14:47:11.382Z,18.52
2018-08-25T14:49:40.084Z,18.59
2018-08-25T14:52:08.662Z,18.50
2018-08-25T14:54:37.784Z,18.43
2018-08-25T14:57:06.737Z,18.20
2018-08-25T14:59:35.630Z,18.08
2018-08-25T15:02:04.513Z,18.20
2018-08-25T15:04:33.099Z,18.15
2018-08-25T15:07:01.709Z,18.03
2018-08-25T15:09:30.365Z,18.03
2018-08-25T15:11:59.353Z,18.06
2018-08-25T15:14:28.879Z,18.01
2018-08-25T15:16:57.954Z,17.94
2018-08-25T15:19:26.717Z,17.90
2018-08-25T15:21:55.452Z,17.82
2018-08-25T15:24:24.300Z,17.88
2018-08-25T15:26:53.159Z,17.93
2018-08-25T15:29:21.896Z,17.95
2018-08-25T15:31:51.833Z,17.98
2018-08-25T15:34:20.784Z,18.01
2018-08-25T15:36:50.777Z,18.01
2018-08-25T15:39:19.508Z,17.85
2018-08-25T15:41:48.409Z,17.86
2018-08-25T15:44:17.357Z,17.80
2018-08-25T15:46:47.689Z,17.61
2018-08-25T15:49:17.182Z,17.63
2018-08-25T15:51:46.043Z,17.73
2018-08-25T15:54:15.087Z,17.75
2018-08-25T15:56:43.732Z,17.71
2018-08-25T15:59:12.476Z,17.63
2018-08-25T16:01:41.419Z,17.62
2018-08-25T16:04:10.900Z,17.48
2018-08-25T16:06:39.542Z,17.51
2018-08-25T16:09:10.504Z,17.53
2018-08-25T16:11:39.240Z,17.45
2018-08-25T16:14:07.992Z,17.38
2018-08-25T16:16:36.747Z,17.23
2018-08-25T16:25:11.121Z,17.00
2018-08-25T16:27:39.712Z,16.94
2018-08-25T16:30:08.317Z,16.88
2018-08-25T16:32:36.965Z,16.87
2018-08-25T16:35:05.586Z,16.81
2018-08-25T16:37:34.201Z,16.79
2018-08-25T16:40:02.820Z,16.76
2018-08-25T16:42:31.656Z,16.78
2018-08-25T16:45:00.212Z,16.71
2018-08-25T16:47:28.897Z,16.70
2018-08-25T16:49:57.679Z,16.71
2018-08-25T16:52:26.500Z,16.65
2018-08-25T16:54:55.057Z,16.63
2018-08-25T16:57:23.609Z,16.62
2018-08-25T16:59:52.188Z,16.63
2018-08-25T17:02:20.852Z,16.65
2018-08-25T17:04:49.463Z,16.50
2018-08-25T17:07:18.184Z,16.49
2018-08-25T17:09:46.821Z,16.47
2018-08-25T17:12:15.390Z,16.40
2018-08-25T17:14:44.008Z,16.31
2018-08-25T17:17:12.593Z,16.22
2018-08-25T17:19:41.175Z,16.19
2018-08-25T17:22:10.593Z,16.19
2018-08-25T17:24:39.145Z,16.22
2018-08-25T17:27:07.716Z,16.20
2018-08-25T17:29:36.284Z,16.07
2018-08-25T17:32:05.095Z,16.01
2018-08-25T17:34:33.748Z,15.92
2018-08-25T17:37:02.304Z,15.89
2018-08-25T17:39:30.968Z,15.75
2018-08-25T17:41:59.578Z,15.75
2018-08-25T17:44:28.120Z,15.71
2018-08-25T17:46:56.800Z,15.69
2018-08-25T17:49:25.433Z,15.69
2018-08-25T17:51:54.004Z,15.68
2018-08-25T17:54:22.628Z,15.63
2018-08-25T17:56:51.312Z,15.56
2018-08-25T17:59:20.075Z,15.47
2018-08-25T18:01:48.890Z,15.48
2018-08-25T18:04:17.584Z,15.51
2018-08-25T18:06:46.301Z,15.54
2018-08-25T18:09:15.207Z,15.55
2018-08-25T18:11:44.223Z,15.54
2018-08-25T18:14:12.913Z,15.51
2018-08-25T18:16:41.669Z,15.44
2018-08-25T18:19:10.335Z,15.48
2018-08-25T18:21:38.983Z,15.46
2018-08-25T18:24:07.835Z,15.49
2018-08-25T18:26:37.141Z,15.58
2018-08-25T18:29:06.006Z,15.55
2018-08-25T18:31:35.368Z,15.54
2018-08-25T18:34:04.528Z,15.58
2018-08-25T18:36:34.083Z,15.55
2018-08-25T18:39:03.130Z,15.60
2018-08-25T18:41:31.784Z,15.52
2018-08-25T18:44:00.357Z,15.39
2018-08-25T18:46:29.237Z,15.33
2018-08-25T18:48:57.992Z,15.40
2018-08-25T18:51:26.994Z,15.44
2018-08-25T18:53:56.386Z,15.43
2018-08-25T18:56:25.092Z,15.43
2018-08-25T18:58:53.946Z,15.33
2018-08-25T19:01:22.660Z,15.34
2018-08-25T19:03:51.651Z,15.30
2018-08-25T19:06:20.967Z,15.19
2018-08-25T19:08:50.531Z,15.11
2018-08-25T19:11:19.181Z,15.18
2018-08-25T19:13:48.069Z,15.19
2018-08-25T19:16:17.999Z,15.11
2018-08-25T19:18:46.769Z,15.04
2018-08-25T19:21:16.460Z,15.05
2018-08-25T19:23:45.409Z,15.02
2018-08-25T19:26:13.985Z,15.05
2018-08-25T19:28:42.922Z,15.17
2018-08-25T19:31:11.580Z,15.29
2018-08-25T19:33:40.376Z,15.35
2018-08-25T19:36:09.184Z,15.37
2018-08-25T19:38:38.525Z,15.42
2018-08-25T19:41:07.583Z,15.44
2018-08-25T19:43:36.836Z,15.47
2018-08-25T19:46:05.593Z,15.49
2018-08-25T19:48:34.505Z,15.51
2018-08-25T19:51:03.139Z,15.49
2018-08-25T19:53:32.225Z,15.50
2018-08-25T19:56:00.911Z,15.43
2018-08-25T19:58:29.786Z,15.37
2018-08-25T20:00:58.588Z,15.31
2018-08-25T20:03:27.547Z,15.22
2018-08-25T20:05:56.444Z,15.20
2018-08-25T20:08:25.368Z,15.14
2018-08-25T20:10:54.019Z,15.18
2018-08-25T20:13:22.954Z,15.19
2018-08-25T20:15:51.607Z,15.19
2018-08-25T20:18:20.260Z,15.20
2018-08-25T20:20:48.994Z,15.21
2018-08-25T20:23:17.602Z,15.19
2018-08-25T20:25:46.983Z,15.13
2018-08-25T20:28:16.424Z,15.13
2018-08-25T20:30:45.257Z,14.92
2018-08-25T20:33:14.052Z,14.69
2018-08-25T20:35:42.770Z,14.65
2018-08-25T20:38:12.132Z,14.65
2018-08-25T20:40:40.824Z,14.68
2018-08-25T20:43:09.904Z,14.75
2018-08-25T20:45:38.519Z,14.79
2018-08-25T20:48:07.289Z,14.84
2018-08-25T20:50:36.016Z,14.84
2018-08-25T20:53:05.005Z,14.83
2018-08-25T20:55:33.756Z,14.73
2018-08-25T20:58:02.507Z,14.76
2018-08-25T21:00:31.207Z,14.77
2018-08-25T21:03:00.030Z,14.70
2018-08-25T21:05:30.028Z,14.66
2018-08-25T21:07:58.888Z,14.66
2018-08-25T21:10:28.021Z,14.70
2018-08-25T21:12:56.565Z,14.66
2018-08-25T21:15:25.987Z,14.64
2018-08-25T21:17:55.793Z,14.60
2018-08-25T21:20:24.547Z,14.60
2018-08-25T21:22:54.138Z,14.62
2018-08-25T21:25:22.747Z,14.65
2018-08-25T21:27:51.458Z,14.64
2018-08-25T21:30:20.317Z,14.70
2018-08-25T21:32:49.175Z,14.67
2018-08-25T21:35:17.831Z,14.66
2018-08-25T21:37:46.706Z,14.68
2018-08-25T21:40:16.215Z,14.64
2018-08-25T21:42:44.988Z,14.54
2018-08-25T21:45:13.827Z,14.53
2018-08-25T21:47:42.462Z,14.56
2018-08-25T21:50:12.880Z,14.59
2018-08-25T21:52:41.555Z,14.55
2018-08-25T21:55:10.155Z,14.59
2018-08-25T21:57:39.693Z,14.55
2018-08-25T22:00:08.956Z,14.52
2018-08-25T22:02:38.817Z,14.54
2018-08-25T22:05:08.176Z,14.52
2018-08-25T22:07:37.120Z,14.45
2018-08-25T22:10:06.072Z,14.44
2018-08-25T22:12:35.348Z,14.35
2018-08-25T22:15:03.892Z,14.27
2018-08-25T22:20:31.499Z,14.02
2018-08-25T22:23:01.392Z,13.97
2018-08-25T22:25:30.064Z,13.91
2018-08-25T22:27:59.589Z,13.85
2018-08-25T22:30:28.282Z,13.77
2018-08-25T22:32:57.133Z,13.79
2018-08-25T22:35:25.848Z,13.82
2018-08-25T22:37:54.533Z,13.76
2018-08-25T22:40:24.076Z,13.61
2018-08-25T22:42:52.935Z,13.62
2018-08-25T22:45:21.868Z,13.53
2018-08-25T22:47:51.869Z,13.55
2018-08-25T22:50:20.662Z,13.49
2018-08-25T22:52:51.536Z,13.49
2018-08-25T22:55:22.068Z,13.58
2018-08-25T22:57:51.216Z,13.62
2018-08-25T23:00:20.341Z,13.63
2018-08-25T23:02:49.640Z,13.63
2018-08-25T23:05:18.434Z,13.61
2018-08-25T23:07:47.745Z,13.64
2018-08-25T23:10:16.612Z,13.63
2018-08-25T23:12:45.379Z,13.56
2018-08-25T23:15:14.011Z,13.52
2018-08-25T23:17:42.534Z,13.60
2018-08-25T23:20:11.328Z,13.67
2018-08-25T23:22:40.576Z,13.66
2018-08-25T23:25:09.175Z,13.63
2018-08-25T23:27:38.008Z,13.65
2018-08-25T23:30:06.754Z,13.58
2018-08-25T23:32:35.334Z,13.59
2018-08-25T23:35:04.116Z,13.57
2018-08-25T23:37:32.668Z,13.55
2018-08-25T23:40:02.490Z,13.56
2018-08-25T23:42:31.845Z,13.54
2018-08-25T23:45:00.461Z,13.51
2018-08-25T23:47:29.509Z,13.48
2018-08-25T23:49:58.288Z,13.39
2018-08-25T23:52:26.900Z,13.36
2018-08-25T23:54:56.461Z,13.41
2018-08-25T23:57:25.135Z,13.51
2018-08-25T23:59:54.665Z,13.54
